createdAt,value
2023-01-02T00:00:15.794Z,24.23
2023-01-02T00:02:46.261Z,25.03
2023-01-02T00:05:13.538Z,23.67
2023-01-02T00:07:40.672Z,23.00
2023-01-02T00:10:07.923Z,20.17
2023-01-02T00:12:35.097Z,21.20
2023-01-02T00:15:03.067Z,22.63
2023-01-02T00:17:30.187Z,26.20
2023-01-02T00:19:57.439Z,23.33
2023-01-02T00:22:24.553Z,25.07
2023-01-02T00:24:51.745Z,24.27
2023-01-02T00:27:18.903Z,23.27
2023-01-02T00:29:46.047Z,21.67
2023-01-02T00:32:13.261Z,20.13
2023-01-02T00:34:40.419Z,18.80
2023-01-02T00:37:07.538Z,18.00
2023-01-02T00:39:34.666Z,17.83
2023-01-02T00:42:01.822Z,18.37
2023-01-02T00:44:28.920Z,19.30
2023-01-02T00:46:56.093Z,18.77
2023-01-02T00:49:23.267Z,17.93
2023-01-02T00:51:50.381Z,18.87
2023-01-02T00:54:17.565Z,18.63
2023-01-02T00:56:44.745Z,20.03
2023-01-02T00:59:11.904Z,17.80
2023-01-02T01:01:39.255Z,15.73
2023-01-02T01:04:06.528Z,17.37
2023-01-02T01:06:34.415Z,16.27
2023-01-02T01:09:01.561Z,16.90
2023-01-02T01:11:28.708Z,18.00
2023-01-02T01:13:55.814Z,16.37
2023-01-02T01:16:23.118Z,16.30
2023-01-02T01:18:50.375Z,16.03
2023-01-02T01:21:18.267Z,16.73
2023-01-02T01:23:45.571Z,15.80
2023-01-02T01:26:13.270Z,15.83
2023-01-02T01:28:40.563Z,14.87
2023-01-02T01:31:08.527Z,14.77
2023-01-02T01:33:35.751Z,17.07
2023-01-02T01:36:05.810Z,16.50
2023-01-02T01:38:33.195Z,17.43
2023-01-02T01:41:00.532Z,16.93
2023-01-02T01:43:43.947Z,17.33
2023-01-02T01:46:29.232Z,15.50
2023-01-02T01:49:11.311Z,13.30
2023-01-02T01:51:40.123Z,10.73
2023-01-02T01:54:10.727Z,10.53
2023-01-02T01:56:38.609Z,12.03
2023-01-02T01:59:05.776Z,12.33
2023-01-02T02:01:32.988Z,12.53
2023-01-02T02:04:00.393Z,13.97
2023-01-02T02:06:27.633Z,14.23
2023-01-02T02:08:54.760Z,13.57
2023-01-02T02:11:21.939Z,13.87
2023-01-02T02:13:49.181Z,13.73
2023-01-02T02:16:16.372Z,14.23
2023-01-02T02:19:00.525Z,14.00
2023-01-02T02:21:46.425Z,14.90
2023-01-02T02:24:32.406Z,15.60
2023-01-02T02:27:14.731Z,11.23
2023-01-02T02:30:00.647Z,13.00
2023-01-02T02:32:33.537Z,14.17
2023-01-02T02:35:05.154Z,14.60
2023-01-02T02:37:35.483Z,14.37
2023-01-02T02:40:08.417Z,13.27
2023-01-02T02:42:50.543Z,14.00
2023-01-02T02:45:25.563Z,14.13
2023-01-02T02:47:52.719Z,14.77
2023-01-02T02:50:34.461Z,14.17
2023-01-02T02:53:10.119Z,15.33
2023-01-02T02:55:39.139Z,15.70
2023-01-02T02:58:06.403Z,16.37
2023-01-02T03:00:33.573Z,16.07
2023-01-02T03:03:00.789Z,19.40
2023-01-02T03:05:38.534Z,20.30
2023-01-02T03:08:12.617Z,20.67
2023-01-02T03:10:58.757Z,22.33
2023-01-02T03:13:40.950Z,23.83
2023-01-02T03:16:20.591Z,22.67
2023-01-02T03:18:50.794Z,24.17
2023-01-02T03:21:19.122Z,22.70
2023-01-02T03:23:46.600Z,22.60
2023-01-02T03:26:14.244Z,23.60
2023-01-02T03:28:41.921Z,22.80
2023-01-02T03:31:09.823Z,22.40
2023-01-02T03:33:37.710Z,25.07
2023-01-02T03:36:05.715Z,30.97
2023-01-02T03:38:34.923Z,28.30
2023-01-02T03:41:10.368Z,27.43
2023-01-02T03:43:37.801Z,34.40
2023-01-02T03:46:17.175Z,46.13
2023-01-02T03:48:45.244Z,41.30
2023-01-02T03:51:12.387Z,35.70
2023-01-02T03:53:40.039Z,35.50
2023-01-02T03:56:16.325Z,36.77
2023-01-02T03:58:59.542Z,36.97
2023-01-02T04:01:33.756Z,38.67
2023-01-02T04:04:27.324Z,36.30
2023-01-02T04:06:56.160Z,70.80
2023-01-02T04:09:23.740Z,34.87
2023-01-02T04:11:52.986Z,32.37
2023-01-02T04:14:22.503Z,36.93
2023-01-02T04:16:49.612Z,34.97
2023-01-02T04:19:21.969Z,36.37
2023-01-02T04:21:49.128Z,36.47
2023-01-02T04:24:20.332Z,34.97
2023-01-02T04:26:48.954Z,32.93
2023-01-02T04:29:16.058Z,31.47
2023-01-02T04:32:06.476Z,31.43
2023-01-02T04:34:34.218Z,32.60
2023-01-02T04:37:01.412Z,30.23
2023-01-02T04:39:29.127Z,25.20
2023-01-02T04:41:56.280Z,21.63
2023-01-02T04:44:23.387Z,25.83
2023-01-02T04:46:50.535Z,29.53
2023-01-02T04:49:17.673Z,33.27
2023-01-02T04:51:44.838Z,30.10
2023-01-02T04:54:12.224Z,28.53
2023-01-02T04:56:39.429Z,32.00
2023-01-02T04:59:06.564Z,32.00
2023-01-02T05:01:33.821Z,30.37
2023-01-02T05:04:01.022Z,28.60
2023-01-02T05:06:28.132Z,30.70
2023-01-02T05:08:55.267Z,31.53
2023-01-02T05:11:22.433Z,32.40
2023-01-02T05:13:49.578Z,41.27
2023-01-02T05:16:16.880Z,44.87
2023-01-02T05:18:44.064Z,92.80
2023-01-02T05:21:31.981Z,67.07
2023-01-02T05:23:59.858Z,31.20
2023-01-02T05:26:27.050Z,29.27
2023-01-02T05:28:54.430Z,29.37
2023-01-02T05:31:21.731Z,28.10
2023-01-02T05:33:55.425Z,30.57
2023-01-02T05:36:22.769Z,30.53
2023-01-02T05:38:49.961Z,29.83
2023-01-02T05:41:17.161Z,36.33
2023-01-02T05:43:44.294Z,34.77
2023-01-02T05:46:12.354Z,38.37
2023-01-02T05:48:39.651Z,38.50
2023-01-02T05:51:07.238Z,46.73
2023-01-02T05:53:34.394Z,48.30
2023-01-02T05:56:05.338Z,61.03
2023-01-02T05:58:35.438Z,60.33
2023-01-02T06:01:06.451Z,56.17
2023-01-02T06:03:33.669Z,56.47
2023-01-02T06:06:07.557Z,61.87
2023-01-02T06:08:34.851Z,73.00
2023-01-02T06:11:02.282Z,77.17
2023-01-02T06:13:30.177Z,80.70
2023-01-02T06:15:57.753Z,83.80
2023-01-02T06:18:25.047Z,77.17
2023-01-02T06:20:52.230Z,64.43
2023-01-02T06:23:19.394Z,60.80
2023-01-02T06:25:46.508Z,66.57
2023-01-02T06:28:13.675Z,62.97
2023-01-02T06:30:40.838Z,54.23
2023-01-02T06:33:07.948Z,48.33
2023-01-02T06:35:35.135Z,47.03
2023-01-02T06:38:02.273Z,46.43
2023-01-02T06:40:29.465Z,43.90
2023-01-02T06:43:00.002Z,44.60
2023-01-02T06:45:27.538Z,42.37
2023-01-02T06:47:58.423Z,42.27
2023-01-02T06:50:31.247Z,39.50
2023-01-02T06:53:01.717Z,36.20
2023-01-02T06:55:28.835Z,33.83
2023-01-02T06:57:55.956Z,34.20
2023-01-02T07:00:23.100Z,40.23
2023-01-02T07:02:50.363Z,44.10
2023-01-02T07:05:24.296Z,38.60
2023-01-02T07:07:51.874Z,38.47
2023-01-02T07:10:19.023Z,33.80
2023-01-02T07:12:46.174Z,32.37
2023-01-02T07:15:13.361Z,35.00
2023-01-02T07:17:40.477Z,38.37
2023-01-02T07:20:07.914Z,36.07
2023-01-02T07:22:35.134Z,36.50
2023-01-02T07:25:02.379Z,42.77
2023-01-02T07:27:30.210Z,44.47
2023-01-02T07:29:57.363Z,40.30
2023-01-02T07:32:27.546Z,39.77
2023-01-02T07:34:54.806Z,44.00
2023-01-02T07:37:21.993Z,42.40
2023-01-02T07:39:49.121Z,47.17
2023-01-02T07:42:16.232Z,51.97
2023-01-02T07:44:43.409Z,49.30
2023-01-02T07:47:10.528Z,49.30
2023-01-02T07:49:37.649Z,49.27
2023-01-02T07:52:04.841Z,49.70
2023-01-02T07:54:31.948Z,49.83
2023-01-02T07:56:59.050Z,50.80
2023-01-02T07:59:26.298Z,51.47
2023-01-02T08:01:53.551Z,49.77
2023-01-02T08:04:20.805Z,51.20
2023-01-02T08:06:48.044Z,46.57
2023-01-02T08:09:15.165Z,55.17
2023-01-02T08:11:42.304Z,54.90
2023-01-02T08:14:09.620Z,50.93
2023-01-02T08:16:36.896Z,46.77
2023-01-02T08:19:04.039Z,50.03
2023-01-02T08:21:31.233Z,47.83
2023-01-02T08:23:58.393Z,49.80
2023-01-02T08:26:25.622Z,48.70
2023-01-02T08:28:52.778Z,50.70
2023-01-02T08:31:20.761Z,48.60
2023-01-02T08:33:47.990Z,56.37
2023-01-02T08:36:15.321Z,69.37
2023-01-02T08:38:42.716Z,60.40
2023-01-02T08:41:09.936Z,58.10
2023-01-02T08:43:37.318Z,54.13
2023-01-02T08:46:07.707Z,54.83
2023-01-02T08:48:35.192Z,52.83
2023-01-02T08:51:02.713Z,64.87
2023-01-02T08:53:29.826Z,52.67
2023-01-02T08:56:15.086Z,68.80
2023-01-02T08:58:43.058Z,60.43
2023-01-02T09:01:12.482Z,59.53
2023-01-02T09:03:39.714Z,57.97
2023-01-02T09:06:06.899Z,57.63
2023-01-02T09:08:34.052Z,77.83
2023-01-02T09:11:09.877Z,68.27
2023-01-02T09:13:36.987Z,71.65
2023-01-02T09:16:04.214Z,76.83
2023-01-02T09:18:31.371Z,86.63
2023-01-02T09:20:58.514Z,88.13
2023-01-02T09:23:25.630Z,93.07
2023-01-02T09:25:52.782Z,88.43
2023-01-02T09:28:19.885Z,79.47
2023-01-02T09:30:47.063Z,70.40
2023-01-02T09:33:14.255Z,70.80
2023-01-02T09:35:41.394Z,63.97
2023-01-02T09:38:08.512Z,61.00
2023-01-02T09:40:36.049Z,54.38
2023-01-02T09:43:03.164Z,50.42
2023-01-02T09:45:30.473Z,49.45
2023-01-02T09:47:57.640Z,42.15
2023-01-02T09:50:28.284Z,37.25
2023-01-02T09:52:56.407Z,32.15
2023-01-02T09:55:32.201Z,30.50
2023-01-02T09:58:04.616Z,31.30
2023-01-02T10:00:35.395Z,29.40
2023-01-02T10:03:24.490Z,24.35
2023-01-02T10:06:08.824Z,21.08
2023-01-02T10:08:49.213Z,23.50
2023-01-02T10:11:16.408Z,19.55
2023-01-02T10:16:33.975Z,20.02
2023-01-02T10:19:02.067Z,33.13
2023-01-02T10:21:33.467Z,45.30
2023-01-02T10:24:14.510Z,49.00
2023-01-02T10:26:42.582Z,29.60
2023-01-02T10:29:28.585Z,26.20
2023-01-02T10:32:00.381Z,18.75
2023-01-02T10:34:30.992Z,19.88
2023-01-02T10:37:01.782Z,17.58
2023-01-02T10:39:33.758Z,15.52
2023-01-02T10:42:01.038Z,10.88
2023-01-02T10:44:34.620Z,25.77
2023-01-02T10:47:10.194Z,29.17
2023-01-02T10:49:37.872Z,27.70
2023-01-02T10:52:10.588Z,25.67
2023-01-02T10:54:59.555Z,19.70
2023-01-02T10:57:27.346Z,17.80
2023-01-02T10:59:58.701Z,12.52
2023-01-02T11:02:27.739Z,12.63
2023-01-02T11:04:54.929Z,13.88
2023-01-02T11:07:25.531Z,14.38
2023-01-02T11:09:56.789Z,12.13
2023-01-02T11:12:27.316Z,10.30
2023-01-02T11:14:59.500Z,8.95
2023-01-02T11:17:26.621Z,7.15
2023-01-02T11:19:55.111Z,7.82
2023-01-02T11:22:23.203Z,7.70
2023-01-02T11:25:00.466Z,8.50
2023-01-02T11:27:43.594Z,8.20
2023-01-02T11:30:23.155Z,7.68
2023-01-02T11:32:50.309Z,7.88
2023-01-02T11:35:36.290Z,9.40
2023-01-02T11:38:03.572Z,9.45
2023-01-02T11:40:31.877Z,10.13
2023-01-02T11:43:19.556Z,8.35
2023-01-02T11:45:46.696Z,9.43
2023-01-02T11:48:15.673Z,9.95
2023-01-02T11:50:42.855Z,9.18
2023-01-02T11:53:12.988Z,8.95
2023-01-02T11:55:47.506Z,8.55
2023-01-02T11:58:18.739Z,8.45
2023-01-02T12:00:45.916Z,8.57
2023-01-02T12:03:18.483Z,9.40
2023-01-02T12:05:46.013Z,8.57
2023-01-02T12:08:41.098Z,8.10
2023-01-02T12:11:10.457Z,8.88
2023-01-02T12:13:49.500Z,9.43
2023-01-02T12:16:16.676Z,10.00
2023-01-02T12:18:43.823Z,15.93
2023-01-02T12:21:14.118Z,15.25
2023-01-02T12:23:59.207Z,14.32
2023-01-02T12:26:30.683Z,20.05
2023-01-02T12:29:46.130Z,18.60
2023-01-02T12:32:06.519Z,28.45
2023-01-02T12:34:42.885Z,39.45
2023-01-02T12:37:28.627Z,47.83
2023-01-02T12:40:11.069Z,53.05
2023-01-02T12:42:38.196Z,45.95
2023-01-02T12:45:05.408Z,42.15
2023-01-02T12:47:51.333Z,38.13
2023-01-02T12:50:33.531Z,38.60
2023-01-02T12:53:06.724Z,39.00
2023-01-02T12:55:42.728Z,38.28
2023-01-02T12:58:30.138Z,41.67
2023-01-02T13:01:16.011Z,40.60
2023-01-02T13:03:48.482Z,39.25
2023-01-02T13:06:45.190Z,43.88
2023-01-02T13:09:07.486Z,41.03
2023-01-02T13:11:48.957Z,41.47
2023-01-02T13:14:22.781Z,41.03
2023-01-02T13:16:56.451Z,32.72
2023-01-02T13:19:39.191Z,24.52
2023-01-02T13:22:15.288Z,21.23
2023-01-02T13:24:42.468Z,23.70
2023-01-02T13:27:09.613Z,22.38
2023-01-02T13:29:46.218Z,20.20
2023-01-02T13:32:13.938Z,22.92
2023-01-02T13:34:51.749Z,22.67
2023-01-02T13:37:28.011Z,20.77
2023-01-02T13:39:58.810Z,18.02
2023-01-02T13:42:45.929Z,17.83
2023-01-02T13:45:15.905Z,16.30
2023-01-02T13:47:48.195Z,21.38
2023-01-02T13:50:18.780Z,18.67
2023-01-02T13:53:15.274Z,19.63
2023-01-02T13:55:42.441Z,18.80
2023-01-02T13:58:17.388Z,20.48
2023-01-02T14:00:53.956Z,20.10
2023-01-02T14:03:24.890Z,18.27
2023-01-02T14:05:59.155Z,19.92
2023-01-02T14:08:32.237Z,18.25
2023-01-02T14:11:23.305Z,16.50
2023-01-02T14:13:51.140Z,15.98
2023-01-02T14:16:21.355Z,19.65
2023-01-02T14:19:08.767Z,19.13
2023-01-02T14:21:36.913Z,19.80
2023-01-02T14:24:18.563Z,21.83
2023-01-02T14:26:49.553Z,21.40
2023-01-02T14:29:16.979Z,24.83
2023-01-02T14:31:44.223Z,21.90
2023-01-02T14:34:12.090Z,22.38
2023-01-02T14:36:43.070Z,18.23
2023-01-02T14:39:20.595Z,21.45
2023-01-02T14:42:09.223Z,28.73
2023-01-02T14:44:40.847Z,61.67
2023-01-02T14:47:17.705Z,54.83
2023-01-02T14:49:44.867Z,43.13
2023-01-02T14:52:16.998Z,37.92
2023-01-02T14:54:48.042Z,34.10
2023-01-02T14:57:27.400Z,41.58
2023-01-02T14:59:54.542Z,44.10
2023-01-02T15:02:22.959Z,60.53
2023-01-02T15:05:03.527Z,59.35
2023-01-02T15:07:50.160Z,64.15
2023-01-02T15:10:18.051Z,60.53
2023-01-02T15:13:04.290Z,63.65
2023-01-02T15:15:33.051Z,74.07
2023-01-02T15:18:07.369Z,69.05
2023-01-02T15:20:34.527Z,77.53
2023-01-02T15:23:01.709Z,87.22
2023-01-02T15:25:34.974Z,113.43
2023-01-02T15:28:02.337Z,105.53
2023-01-02T15:30:30.447Z,103.82
2023-01-02T15:32:57.710Z,109.15
2023-01-02T15:35:25.564Z,116.78
2023-01-02T15:37:52.738Z,89.50
2023-01-02T15:40:35.683Z,116.50
2023-01-02T15:43:25.114Z,91.32
2023-01-02T15:45:52.748Z,98.70
2023-01-02T15:48:21.619Z,95.50
2023-01-02T15:50:52.841Z,104.43
2023-01-02T15:53:34.206Z,110.57
2023-01-02T15:56:01.472Z,128.68
2023-01-02T15:58:32.248Z,186.43
2023-01-02T16:01:18.047Z,130.50
2023-01-02T16:04:01.636Z,110.97
2023-01-02T16:06:34.319Z,94.50
2023-01-02T16:09:02.550Z,89.40
2023-01-02T16:11:29.837Z,91.10
2023-01-02T16:14:19.655Z,88.15
2023-01-02T16:16:50.160Z,112.03
2023-01-02T16:19:30.689Z,140.80
2023-01-02T16:22:02.968Z,129.10
2023-01-02T16:24:30.144Z,156.13
2023-01-02T16:26:57.288Z,137.52
2023-01-02T16:29:25.588Z,125.85
2023-01-02T16:31:55.765Z,102.53
2023-01-02T16:34:25.591Z,99.18
2023-01-02T16:37:09.385Z,118.22
2023-01-02T16:39:42.390Z,122.70
2023-01-02T16:42:28.230Z,122.60
2023-01-02T16:44:55.672Z,105.57
2023-01-02T16:47:24.287Z,99.93
2023-01-02T16:49:51.470Z,89.15
2023-01-02T16:52:18.691Z,94.10
2023-01-02T16:54:49.280Z,129.68
2023-01-02T16:57:21.020Z,124.57
2023-01-02T16:59:48.142Z,139.07
2023-01-02T17:02:15.468Z,133.10
2023-01-02T17:04:42.823Z,123.07
2023-01-02T17:07:10.787Z,103.30
2023-01-02T17:09:37.894Z,98.28
2023-01-02T17:12:05.273Z,132.40
2023-01-02T17:14:33.320Z,152.55
2023-01-02T17:17:00.581Z,149.05
2023-01-02T17:19:27.842Z,162.33
2023-01-02T17:21:54.964Z,142.20
2023-01-02T17:24:22.146Z,132.80
2023-01-02T17:26:49.406Z,188.03
2023-01-02T17:29:16.529Z,146.80
2023-01-02T17:31:43.744Z,148.20
2023-01-02T17:34:10.979Z,162.37
2023-01-02T17:36:38.103Z,181.70
2023-01-02T17:39:05.232Z,160.83
2023-01-02T17:41:32.389Z,121.03
2023-01-02T17:44:02.260Z,111.37
2023-01-02T17:47:04.324Z,119.50
2023-01-02T17:49:18.054Z,126.97
2023-01-02T17:51:45.231Z,132.73
2023-01-02T17:54:12.716Z,135.02
2023-01-02T17:56:39.948Z,135.70
2023-01-02T17:59:07.083Z,153.40
2023-01-02T18:01:34.327Z,122.70
2023-01-02T18:04:01.580Z,111.10
2023-01-02T18:06:28.701Z,102.07
2023-01-02T18:08:56.016Z,108.97
2023-01-02T18:11:23.316Z,112.80
2023-01-02T18:13:51.659Z,144.00
2023-01-02T18:16:21.244Z,184.30
2023-01-02T18:18:48.700Z,187.07
2023-01-02T18:21:16.895Z,205.97
2023-01-02T18:23:44.048Z,234.63
2023-01-02T18:26:12.234Z,238.70
2023-01-02T18:28:41.395Z,236.60
2023-01-02T18:31:15.787Z,220.77
2023-01-02T18:33:43.408Z,191.90
2023-01-02T18:36:20.774Z,197.00
2023-01-02T18:38:50.500Z,178.33
2023-01-02T18:41:20.836Z,167.47
2023-01-02T18:43:49.723Z,168.77
2023-01-02T18:46:20.231Z,151.53
2023-01-02T18:48:47.539Z,133.87
2023-01-02T18:51:16.951Z,127.57
2023-01-02T18:53:46.247Z,138.10
2023-01-02T18:56:14.333Z,116.43
2023-01-02T18:58:43.421Z,102.13
2023-01-02T19:01:27.126Z,105.57
2023-01-02T19:03:58.029Z,105.07
2023-01-02T19:06:26.172Z,108.35
2023-01-02T19:08:53.418Z,127.73
2023-01-02T19:11:40.913Z,136.03
2023-01-02T19:14:14.429Z,157.60
2023-01-02T19:16:41.745Z,141.43
2023-01-02T19:19:10.503Z,130.70
2023-01-02T19:21:38.007Z,114.20
2023-01-02T19:24:05.134Z,118.80
2023-01-02T19:26:36.478Z,121.73
2023-01-02T19:29:03.883Z,122.83
2023-01-02T19:31:32.155Z,127.07
2023-01-02T19:34:00.753Z,183.30
2023-01-02T19:36:30.695Z,152.60
2023-01-02T19:38:57.847Z,136.07
2023-01-02T19:41:43.641Z,115.45
2023-01-02T19:44:10.759Z,119.17
2023-01-02T19:46:37.968Z,121.13
2023-01-02T19:49:05.163Z,120.00
2023-01-02T19:51:32.436Z,138.90
2023-01-02T19:54:03.971Z,133.50
2023-01-02T19:56:31.504Z,130.27
2023-01-02T19:58:58.728Z,119.23
2023-01-02T20:01:25.982Z,79.33
2023-01-02T20:03:53.233Z,82.17
2023-01-02T20:06:20.372Z,77.73
2023-01-02T20:08:47.566Z,78.57
2023-01-02T20:11:34.712Z,87.90
2023-01-02T20:14:01.824Z,92.00
2023-01-02T20:16:29.840Z,91.80
2023-01-02T20:18:57.189Z,93.03
2023-01-02T20:21:25.590Z,92.90
2023-01-02T20:23:56.343Z,100.37
2023-01-02T20:26:23.859Z,97.43
2023-01-02T20:28:50.996Z,98.90
2023-01-02T20:31:18.202Z,103.83
2023-01-02T20:33:45.454Z,110.57
2023-01-02T20:36:13.955Z,115.70
2023-01-02T20:38:41.246Z,133.27
2023-01-02T20:41:08.468Z,120.30
2023-01-02T20:43:35.620Z,121.00
2023-01-02T20:46:02.811Z,124.50
2023-01-02T20:48:30.031Z,129.03
2023-01-02T20:50:57.204Z,139.97
2023-01-02T20:53:24.315Z,134.20
2023-01-02T20:55:51.517Z,131.10
2023-01-02T20:58:18.659Z,128.03
2023-01-02T21:00:45.832Z,107.97
2023-01-02T21:03:13.249Z,103.10
2023-01-02T21:05:40.624Z,101.93
2023-01-02T21:08:08.115Z,107.03
2023-01-02T21:10:36.019Z,112.63
2023-01-02T21:13:12.689Z,110.40
2023-01-02T21:15:47.021Z,112.80
2023-01-02T21:18:24.357Z,107.23
2023-01-02T21:20:52.447Z,113.90
2023-01-02T21:23:19.865Z,109.50
2023-01-02T21:25:47.153Z,94.07
2023-01-02T21:28:14.455Z,175.97
2023-01-02T21:30:41.723Z,109.30
2023-01-02T21:33:08.944Z,100.70
2023-01-02T21:35:36.568Z,125.50
2023-01-02T21:38:03.949Z,96.23
2023-01-02T21:40:31.139Z,76.13
2023-01-02T21:42:58.305Z,104.97
2023-01-02T21:45:25.464Z,116.93
2023-01-02T21:47:52.683Z,102.10
2023-01-02T21:50:19.855Z,103.40
2023-01-02T21:52:47.042Z,113.63
2023-01-02T21:55:17.661Z,71.67
2023-01-02T21:58:12.325Z,36.67
2023-01-02T22:00:35.079Z,32.70
2023-01-02T22:03:02.407Z,27.73
2023-01-02T22:05:29.600Z,19.93
2023-01-02T22:07:56.801Z,21.70
2023-01-02T22:10:23.960Z,18.93
2023-01-02T22:12:51.069Z,20.87
2023-01-02T22:15:18.246Z,25.03
2023-01-02T22:17:45.415Z,20.70
2023-01-02T22:20:12.628Z,20.13
2023-01-02T22:22:39.775Z,17.90
2023-01-02T22:25:07.264Z,24.40
2023-01-02T22:27:34.530Z,24.73
2023-01-02T22:32:49.126Z,52.85
2023-01-02T22:35:16.365Z,24.05
2023-01-02T22:37:43.537Z,20.27
2023-01-02T22:40:11.065Z,51.72
2023-01-02T22:43:02.180Z,37.00
2023-01-02T22:45:31.725Z,21.92
2023-01-02T22:47:59.398Z,18.02
2023-01-02T22:50:27.814Z,37.13
2023-01-02T22:52:55.160Z,42.65
2023-01-02T22:55:23.532Z,24.05
2023-01-02T22:57:51.729Z,22.97
2023-01-02T23:00:19.293Z,18.45
2023-01-02T23:02:46.410Z,11.40
2023-01-02T23:05:17.345Z,11.13
2023-01-02T23:07:44.762Z,38.70
2023-01-02T23:10:11.979Z,41.22
2023-01-02T23:12:39.083Z,18.20
2023-01-02T23:15:06.899Z,19.52
2023-01-02T23:17:52.945Z,13.05
2023-01-02T23:20:20.122Z,13.57
2023-01-02T23:22:48.103Z,11.93
2023-01-02T23:25:15.386Z,11.10
2023-01-02T23:27:42.568Z,9.60
2023-01-02T23:30:10.012Z,9.20
2023-01-02T23:32:37.167Z,8.73
2023-01-02T23:35:04.735Z,9.05
2023-01-02T23:37:31.848Z,8.65
2023-01-02T23:39:59.080Z,9.07
2023-01-02T23:42:26.262Z,9.00
2023-01-02T23:44:53.403Z,8.07
2023-01-02T23:47:20.583Z,8.18
2023-01-02T23:49:47.728Z,8.73
2023-01-02T23:52:14.885Z,9.02
2023-01-02T23:54:42.013Z,8.10
2023-01-02T23:57:09.179Z,8.02
2023-01-02T23:59:36.297Z,13.45
